Overview Statistics Trail Chart Weather Telemetry Raw packets
 

This is the latest recevied weather packets stored in our database for station/object DB7GV-8. If no packets are shown the sender has not sent any weather packets the latest 10 day(s).

<< 15 16 17 18 19 20 21 >>
Time Temp. Humidity Pressure Rain* Wind** Luminosity Snow
1777361816 34.44° C 18% 1016.5 hPa - - - -
1777360911 35.56° C 19% 1016.6 hPa - - - -
1777360006 30° C 24% 1016.7 hPa - - - -
1777359100 30° C 27% 1016.9 hPa - - - -
1777358194 21.11° C 45% 1016.8 hPa - - - -
1777357290 10.56° C 63% 1016.9 hPa - - - -
1777356384 10° C 65% 1016.9 hPa - - - -
1777355479 9.44° C 66% 1016.9 hPa - - - -
1777354573 8.89° C 68% 1016.8 hPa - - - -
1777353668 8.33° C 69% 1016.8 hPa - - - -
1777352762 7.78° C 70% 1016.7 hPa - - - -
1777351857 7.78° C 69% 1016.7 hPa - - - -
1777350951 7.78° C 69% 1016.5 hPa - - - -
1777350046 7.78° C 69% 1016.5 hPa - - - -
1777349140 7.78° C 69% 1016.6 hPa - - - -
1777348235 7.78° C 68% 1016.6 hPa - - - -
1777347329 7.78° C 68% 1016.8 hPa - - - -
1777346424 7.78° C 68% 1016.9 hPa - - - -
1777345519 8.33° C 67% 1017 hPa - - - -
1777344613 8.33° C 67% 1017 hPa - - - -
1777342807 8.33° C 67% 1017.1 hPa - - - -
1777340992 8.89° C 66% 1017.3 hPa - - - -
1777340086 8.89° C 66% 1017.4 hPa - - - -
1777339181 8.89° C 66% 1017.4 hPa - - - -
1777338276 8.89° C 65% 1017.3 hPa - - - -

* Rain since midnight (hover to see other rain measurements)
** Current wind speed in m/s (hover to see current wind gust speed)